createdAt,value
2019-02-02T00:00:39.954Z,1.33
2019-02-02T00:01:39.930Z,1.37
2019-02-02T00:02:40.160Z,1.39
2019-02-02T00:03:39.915Z,1.42
2019-02-02T00:04:39.639Z,1.44
2019-02-02T00:05:39.841Z,1.47
2019-02-02T00:06:39.564Z,1.39
2019-02-02T00:07:40.052Z,1.46
2019-02-02T00:08:39.515Z,1.37
2019-02-02T00:09:39.756Z,1.43
2019-02-02T00:10:39.472Z,1.5
2019-02-02T00:11:39.961Z,1.42
2019-02-02T00:12:39.677Z,1.46
2019-02-02T00:13:39.909Z,1.42
2019-02-02T00:14:39.899Z,1.39
2019-02-02T00:15:39.610Z,1.51
2019-02-02T00:16:39.706Z,1.5
2019-02-02T00:17:39.313Z,1.52
2019-02-02T00:18:39.744Z,1.52
2019-02-02T00:19:39.523Z,1.57
2019-02-02T00:20:39.758Z,1.5
2019-02-02T00:21:39.723Z,1.52
2019-02-02T00:22:39.571Z,1.54
2019-02-02T00:23:39.329Z,1.51
2019-02-02T00:24:39.152Z,1.62
2019-02-02T00:25:39.132Z,1.6
2019-02-02T00:26:39.615Z,1.58
2019-02-02T00:27:46.030Z,1.58
2019-02-02T00:28:39.575Z,1.65
2019-02-02T00:29:39.295Z,1.58
2019-02-02T00:30:39.315Z,1.61
2019-02-02T00:31:39.245Z,1.64
2019-02-02T00:32:39.490Z,1.58
2019-02-02T00:33:39.463Z,1.57
2019-02-02T00:34:38.928Z,1.58
2019-02-02T00:35:39.174Z,1.62
2019-02-02T00:36:39.140Z,1.57
2019-02-02T00:37:39.369Z,1.6
2019-02-02T00:38:39.582Z,1.64
2019-02-02T00:39:39.319Z,1.64
2019-02-02T00:40:39.035Z,1.65
2019-02-02T00:41:39.284Z,1.62
2019-02-02T00:42:39.249Z,1.57
2019-02-02T00:43:41.072Z,1.61
2019-02-02T00:44:39.204Z,1.64
2019-02-02T00:45:38.936Z,1.57
2019-02-02T00:46:38.912Z,1.62
2019-02-02T00:47:38.880Z,1.55
2019-02-02T00:48:38.905Z,1.6
2019-02-02T00:49:39.094Z,1.62
2019-02-02T00:50:38.824Z,1.58
2019-02-02T00:51:39.051Z,1.58
2019-02-02T00:52:39.021Z,1.58
2019-02-02T00:53:38.748Z,1.64
2019-02-02T00:54:38.977Z,1.62
2019-02-02T00:55:38.971Z,1.61
2019-02-02T00:56:38.703Z,1.57
2019-02-02T00:57:38.651Z,1.61
2019-02-02T00:58:38.940Z,1.6
2019-02-02T00:59:38.615Z,1.6
2019-02-02T01:00:38.902Z,1.61
2019-02-02T01:01:38.818Z,1.58
2019-02-02T01:02:38.461Z,1.57
2019-02-02T01:03:38.771Z,1.57
2019-02-02T01:04:38.887Z,1.55
2019-02-02T01:05:38.473Z,1.6
2019-02-02T01:06:38.201Z,1.6
2019-02-02T01:07:38.439Z,1.64
2019-02-02T01:08:38.416Z,1.62
2019-02-02T01:09:38.643Z,1.65
2019-02-02T01:10:38.477Z,1.6
2019-02-02T01:11:38.339Z,1.57
2019-02-02T01:12:38.517Z,1.58
2019-02-02T01:13:38.290Z,1.6
2019-02-02T01:14:38.297Z,1.65
2019-02-02T01:15:38.503Z,1.62
2019-02-02T01:16:38.250Z,1.64
2019-02-02T01:17:38.206Z,1.65
2019-02-02T01:18:38.177Z,1.64
2019-02-02T01:19:38.411Z,1.65
2019-02-02T01:20:38.152Z,1.68
2019-02-02T01:21:38.110Z,1.68
2019-02-02T01:22:38.089Z,1.68
2019-02-02T01:23:37.804Z,1.68
2019-02-02T01:24:38.040Z,1.71
2019-02-02T01:25:38.031Z,1.64
2019-02-02T01:26:38.253Z,1.69
2019-02-02T01:27:37.971Z,1.69
2019-02-02T01:28:38.203Z,1.71
2019-02-02T01:29:37.739Z,1.68
2019-02-02T01:30:37.903Z,1.71
2019-02-02T01:31:37.630Z,1.65
2019-02-02T01:32:37.867Z,1.68
2019-02-02T01:33:38.108Z,1.69
2019-02-02T01:34:37.572Z,1.68
2019-02-02T01:35:37.796Z,1.69
2019-02-02T01:36:37.769Z,1.58
2019-02-02T01:37:38.001Z,1.65
2019-02-02T01:38:37.848Z,1.65
2019-02-02T01:39:37.707Z,1.61
2019-02-02T01:40:37.936Z,1.58
2019-02-02T01:41:37.668Z,1.6
2019-02-02T01:42:37.882Z,1.6
2019-02-02T01:43:37.613Z,1.57
2019-02-02T01:44:37.583Z,1.6
2019-02-02T01:45:37.336Z,1.6
2019-02-02T01:46:37.541Z,1.68
2019-02-02T01:47:37.524Z,1.73
2019-02-02T01:48:37.755Z,1.71
2019-02-02T01:49:37.930Z,1.69
2019-02-02T01:50:37.458Z,1.72
2019-02-02T01:51:37.679Z,1.71
2019-02-02T01:52:37.152Z,1.68
2019-02-02T01:53:37.636Z,1.76
2019-02-02T01:54:40.489Z,1.68
2019-02-02T01:55:37.085Z,1.76
2019-02-02T01:56:37.324Z,1.73
2019-02-02T01:57:37.297Z,1.78
2019-02-02T01:58:37.279Z,1.72
2019-02-02T01:59:37.248Z,1.68
2019-02-02T02:00:37.488Z,1.69
2019-02-02T02:01:37.210Z,1.65
2019-02-02T02:02:37.181Z,1.65
2019-02-02T02:03:36.902Z,1.71
2019-02-02T02:04:37.135Z,1.76
2019-02-02T02:05:37.390Z,1.64
2019-02-02T02:06:37.349Z,1.76
2019-02-02T02:07:37.161Z,1.75
2019-02-02T02:08:37.071Z,1.79
2019-02-02T02:09:37.036Z,1.76
2019-02-02T02:10:37.259Z,1.78
2019-02-02T02:11:36.740Z,1.83
2019-02-02T02:12:37.209Z,1.85
2019-02-02T02:13:36.942Z,1.73
2019-02-02T02:14:36.916Z,1.8
2019-02-02T02:15:36.883Z,1.8
2019-02-02T02:16:36.911Z,1.71
2019-02-02T02:17:36.590Z,1.91
2019-02-02T02:18:37.075Z,1.72
2019-02-02T02:19:37.080Z,1.73
2019-02-02T02:20:37.030Z,1.83
2019-02-02T02:21:36.495Z,1.73
2019-02-02T02:22:46.023Z,1.71
2019-02-02T02:23:36.967Z,1.73
2019-02-02T02:24:36.943Z,1.71
2019-02-02T02:25:36.793Z,1.73
2019-02-02T02:26:36.917Z,1.73
2019-02-02T02:27:36.491Z,1.85
2019-02-02T02:28:36.855Z,1.83
2019-02-02T02:29:36.323Z,1.83
2019-02-02T02:30:37.027Z,1.78
2019-02-02T02:31:36.334Z,1.76
2019-02-02T02:32:36.768Z,1.85
2019-02-02T02:33:36.282Z,1.79
2019-02-02T02:34:36.740Z,1.73
2019-02-02T02:35:36.441Z,1.61
2019-02-02T02:36:36.689Z,1.8
2019-02-02T02:37:36.552Z,1.73
2019-02-02T02:38:36.374Z,1.72
2019-02-02T02:39:36.095Z,1.76
2019-02-02T02:40:36.611Z,1.65
2019-02-02T02:41:36.560Z,1.72
2019-02-02T02:42:36.034Z,1.76
2019-02-02T02:43:36.259Z,1.69
2019-02-02T02:44:36.263Z,1.76
2019-02-02T02:45:36.487Z,1.75
2019-02-02T02:46:36.456Z,1.76
2019-02-02T02:47:36.428Z,1.72
2019-02-02T02:48:36.416Z,1.79
2019-02-02T02:49:36.144Z,1.79
2019-02-02T02:50:36.354Z,1.68
2019-02-02T02:51:36.075Z,1.76
2019-02-02T02:52:36.056Z,1.76
2019-02-02T02:53:36.341Z,1.68
2019-02-02T02:54:36.026Z,1.69
2019-02-02T02:55:36.254Z,1.76
2019-02-02T02:56:35.975Z,1.79
2019-02-02T02:57:36.207Z,1.82
2019-02-02T02:58:46.502Z,1.73
2019-02-02T02:59:36.194Z,1.82
2019-02-02T03:00:35.883Z,1.83
2019-02-02T03:01:35.855Z,1.87
2019-02-02T03:02:36.087Z,1.82
2019-02-02T03:03:36.084Z,1.89
2019-02-02T03:04:36.046Z,1.8
2019-02-02T03:05:36.036Z,1.73
2019-02-02T03:06:35.994Z,1.75
2019-02-02T03:07:36.003Z,1.87
2019-02-02T03:08:35.958Z,1.75
2019-02-02T03:09:35.703Z,1.82
2019-02-02T03:10:35.660Z,1.82
2019-02-02T03:11:35.547Z,1.71
2019-02-02T03:12:35.990Z,1.76
2019-02-02T03:13:35.330Z,1.8
2019-02-02T03:14:35.322Z,1.76
2019-02-02T03:15:35.804Z,1.69
2019-02-02T03:16:35.766Z,1.82
2019-02-02T03:17:35.496Z,1.87
2019-02-02T03:18:35.468Z,1.83
2019-02-02T03:19:35.451Z,1.87
2019-02-02T03:20:35.683Z,1.83
2019-02-02T03:21:35.395Z,1.83
2019-02-02T03:22:35.635Z,1.93
2019-02-02T03:23:35.366Z,1.83
2019-02-02T03:24:35.598Z,1.85
2019-02-02T03:25:35.570Z,1.82
2019-02-02T03:26:35.298Z,1.8
2019-02-02T03:27:35.734Z,1.82
2019-02-02T03:28:35.251Z,1.82
2019-02-02T03:29:35.243Z,1.83
2019-02-02T03:30:35.215Z,1.94
2019-02-02T03:31:35.571Z,1.91
2019-02-02T03:32:35.428Z,1.9
2019-02-02T03:33:35.237Z,2.02
2019-02-02T03:34:35.377Z,1.98
2019-02-02T03:35:35.098Z,1.9
2019-02-02T03:36:35.345Z,1.98
2019-02-02T03:37:35.298Z,1.93
2019-02-02T03:38:35.282Z,1.97
2019-02-02T03:39:35.256Z,1.99
2019-02-02T03:40:34.723Z,2.08
2019-02-02T03:41:34.962Z,2.08
2019-02-02T03:42:35.200Z,2.13
2019-02-02T03:43:34.660Z,2.09
2019-02-02T03:44:35.150Z,2.08
2019-02-02T03:45:35.119Z,2.13
2019-02-02T03:46:34.613Z,2.17
2019-02-02T03:47:35.072Z,2.13
2019-02-02T03:48:35.054Z,2.17
2019-02-02T03:49:34.785Z,2.23
2019-02-02T03:50:35.007Z,2.1
2019-02-02T03:51:34.985Z,2.17
2019-02-02T03:52:34.969Z,2.16
2019-02-02T03:53:34.686Z,2.19
2019-02-02T03:54:34.924Z,2.16
2019-02-02T03:55:34.410Z,2.33
2019-02-02T03:56:34.878Z,2.26
2019-02-02T03:57:34.597Z,2.33
2019-02-02T03:58:34.568Z,2.3
2019-02-02T03:59:34.555Z,2.23
2019-02-02T04:00:34.539Z,2.22
2019-02-02T04:01:35.147Z,2.31
2019-02-02T04:02:34.752Z,2.31
2019-02-02T04:03:34.465Z,2.31
2019-02-02T04:04:34.702Z,2.33
2019-02-02T04:05:34.425Z,2.31
2019-02-02T04:06:34.766Z,2.33
2019-02-02T04:07:34.628Z,2.2
2019-02-02T04:08:34.607Z,2.3
2019-02-02T04:09:34.593Z,2.22
2019-02-02T04:10:34.059Z,2.38
2019-02-02T04:11:34.557Z,2.27
2019-02-02T04:12:34.273Z,2.35
2019-02-02T04:13:34.265Z,2.33
2019-02-02T04:14:34.241Z,2.31
2019-02-02T04:15:34.489Z,2.3
2019-02-02T04:16:34.221Z,2.34
2019-02-02T04:17:34.455Z,2.31
2019-02-02T04:18:34.120Z,2.31
2019-02-02T04:19:34.364Z,2.3
2019-02-02T04:20:34.093Z,2.34
2019-02-02T04:21:34.319Z,2.35
2019-02-02T04:22:35.704Z,2.34
2019-02-02T04:23:34.064Z,2.31
2019-02-02T04:24:33.778Z,2.37
2019-02-02T04:25:34.257Z,2.33
2019-02-02T04:26:34.027Z,2.4
2019-02-02T04:27:34.185Z,2.31
2019-02-02T04:28:34.161Z,2.31
2019-02-02T04:29:33.881Z,2.35
2019-02-02T04:30:34.116Z,2.37
2019-02-02T04:31:33.843Z,2.35
2019-02-02T04:32:33.817Z,2.31
2019-02-02T04:33:33.795Z,2.33
2019-02-02T04:34:34.024Z,2.31
2019-02-02T04:35:34.008Z,2.33
2019-02-02T04:36:33.737Z,2.34
2019-02-02T04:37:33.712Z,2.37
2019-02-02T04:38:33.952Z,2.31
2019-02-02T04:39:33.406Z,2.33
2019-02-02T04:40:33.674Z,2.33
2019-02-02T04:41:34.012Z,2.31
2019-02-02T04:42:33.883Z,2.35
2019-02-02T04:43:33.321Z,2.44
2019-02-02T04:44:33.808Z,2.35
2019-02-02T04:45:33.787Z,2.33
2019-02-02T04:46:33.759Z,2.37
2019-02-02T04:47:33.232Z,2.31
2019-02-02T04:48:34.786Z,2.34
2019-02-02T04:49:33.698Z,2.49
2019-02-02T04:50:33.696Z,2.35
2019-02-02T04:51:33.719Z,2.37
2019-02-02T04:52:33.376Z,2.33
2019-02-02T04:53:33.365Z,2.44
2019-02-02T04:54:33.075Z,2.33
2019-02-02T04:55:33.566Z,2.4
2019-02-02T04:56:33.288Z,2.41
2019-02-02T04:57:33.280Z,2.34
2019-02-02T04:58:33.369Z,2.46
2019-02-02T04:59:34.198Z,2.45
2019-02-02T05:00:32.949Z,2.34
2019-02-02T05:01:33.190Z,2.34
2019-02-02T05:02:35.366Z,2.3
2019-02-02T05:03:32.880Z,2.4
2019-02-02T05:04:33.108Z,2.4
2019-02-02T05:05:33.090Z,2.4
2019-02-02T05:06:33.324Z,2.4
2019-02-02T05:07:33.050Z,2.37
2019-02-02T05:08:33.284Z,2.33
2019-02-02T05:09:32.751Z,2.33
2019-02-02T05:10:32.982Z,2.41
2019-02-02T05:11:32.959Z,2.38
2019-02-02T05:12:33.393Z,2.41
2019-02-02T05:13:33.162Z,2.44
2019-02-02T05:14:32.894Z,2.33
2019-02-02T05:15:32.618Z,2.35
2019-02-02T05:16:33.110Z,2.45
2019-02-02T05:17:32.838Z,2.4
2019-02-02T05:18:32.810Z,2.45
2019-02-02T05:19:32.792Z,2.44
2019-02-02T05:20:32.768Z,2.45
2019-02-02T05:21:32.995Z,2.46
2019-02-02T05:22:32.716Z,2.48
2019-02-02T05:23:32.436Z,2.45
2019-02-02T05:24:32.673Z,2.51
2019-02-02T05:25:32.652Z,2.45
2019-02-02T05:26:32.937Z,2.48
2019-02-02T05:27:32.865Z,2.46
2019-02-02T05:28:32.844Z,2.48
2019-02-02T05:29:43.542Z,2.48
2019-02-02T05:30:32.797Z,2.4
2019-02-02T05:31:32.518Z,2.45
2019-02-02T05:32:32.754Z,2.48
2019-02-02T05:33:32.487Z,2.41
2019-02-02T05:34:32.520Z,2.44
2019-02-02T05:35:32.431Z,2.46
2019-02-02T05:36:32.460Z,2.48
2019-02-02T05:37:32.645Z,2.51
2019-02-02T05:38:32.112Z,2.44
2019-02-02T05:39:32.695Z,2.49
2019-02-02T05:40:32.069Z,2.49
2019-02-02T05:41:32.554Z,2.53
2019-02-02T05:42:32.277Z,2.49
2019-02-02T05:43:32.508Z,2.46
2019-02-02T05:44:32.236Z,2.51
2019-02-02T05:45:32.466Z,2.56
2019-02-02T05:46:32.191Z,2.52
2019-02-02T05:47:32.172Z,2.51
2019-02-02T05:48:32.144Z,2.49
2019-02-02T05:49:32.391Z,2.48
2019-02-02T05:50:32.355Z,2.49
2019-02-02T05:51:32.081Z,2.46
2019-02-02T05:52:32.061Z,2.52
2019-02-02T05:53:31.780Z,2.45
2019-02-02T05:54:32.279Z,2.45
2019-02-02T05:55:31.991Z,2.53
2019-02-02T05:56:32.253Z,2.48
2019-02-02T05:57:31.956Z,2.49
2019-02-02T05:58:32.189Z,2.49
2019-02-02T05:59:32.165Z,2.44
2019-02-02T06:00:31.898Z,2.49
2019-02-02T06:01:34.958Z,2.46
2019-02-02T06:02:32.100Z,2.45
2019-02-02T06:03:31.837Z,2.37
2019-02-02T06:04:32.048Z,2.45
2019-02-02T06:05:31.783Z,2.51
2019-02-02T06:06:31.755Z,2.46
2019-02-02T06:07:31.735Z,2.49
2019-02-02T06:08:31.714Z,2.45
2019-02-02T06:09:31.958Z,2.49
2019-02-02T06:10:31.664Z,2.45
2019-02-02T06:11:31.759Z,2.45
2019-02-02T06:12:31.387Z,2.46
2019-02-02T06:13:31.861Z,2.41
2019-02-02T06:14:31.322Z,2.48
2019-02-02T06:15:33.625Z,2.45
2019-02-02T06:16:31.538Z,2.45
2019-02-02T06:17:31.507Z,2.49
2019-02-02T06:18:31.491Z,2.46
2019-02-02T06:19:31.463Z,2.46
2019-02-02T06:20:31.241Z,2.44
2019-02-02T06:21:31.673Z,2.41
2019-02-02T06:22:31.800Z,2.56
2019-02-02T06:23:31.122Z,2.44
2019-02-02T06:24:31.617Z,2.45
2019-02-02T06:25:31.637Z,2.51
2019-02-02T06:26:31.311Z,2.46
2019-02-02T06:27:31.291Z,2.45
2019-02-02T06:28:31.271Z,2.51
2019-02-02T06:29:31.500Z,2.46
2019-02-02T06:30:31.236Z,2.46
2019-02-02T06:31:31.205Z,2.46
2019-02-02T06:32:31.204Z,2.45
2019-02-02T06:33:31.413Z,2.46
2019-02-02T06:34:31.400Z,2.49
2019-02-02T06:35:31.147Z,2.45
2019-02-02T06:36:31.672Z,2.48
2019-02-02T06:37:30.818Z,2.48
2019-02-02T06:38:31.081Z,2.4
2019-02-02T06:39:31.026Z,2.4
2019-02-02T06:40:31.001Z,2.49
2019-02-02T06:41:31.236Z,2.49
2019-02-02T06:42:30.956Z,2.49
2019-02-02T06:43:32.840Z,2.48
2019-02-02T06:44:31.183Z,2.49
2019-02-02T06:45:31.164Z,2.48
2019-02-02T06:46:31.124Z,2.56
2019-02-02T06:47:30.615Z,2.52
2019-02-02T06:48:30.578Z,2.49
2019-02-02T06:49:31.066Z,2.49
2019-02-02T06:50:30.791Z,2.48
2019-02-02T06:51:30.519Z,2.59
2019-02-02T06:52:31.002Z,2.51
2019-02-02T06:53:30.718Z,2.53
2019-02-02T06:54:35.787Z,2.52
2019-02-02T06:55:30.674Z,2.56
2019-02-02T06:56:30.908Z,2.53
2019-02-02T06:57:30.894Z,2.53
2019-02-02T06:58:30.614Z,2.56
2019-02-02T06:59:30.850Z,2.58
2019-02-02T07:00:31.419Z,2.56
2019-02-02T07:01:30.545Z,2.58
2019-02-02T07:02:30.270Z,2.55
2019-02-02T07:03:30.748Z,2.61
2019-02-02T07:04:30.473Z,2.56
2019-02-02T07:05:33.452Z,2.58
2019-02-02T07:06:30.438Z,2.52
2019-02-02T07:07:30.404Z,2.59
2019-02-02T07:08:30.393Z,2.49
2019-02-02T07:09:30.621Z,2.55
2019-02-02T07:10:30.597Z,2.49
2019-02-02T07:11:30.211Z,2.58
2019-02-02T07:12:30.447Z,2.52
2019-02-02T07:13:30.536Z,2.44
2019-02-02T07:14:30.335Z,2.55
2019-02-02T07:15:30.379Z,2.55
2019-02-02T07:16:30.308Z,2.52
2019-02-02T07:17:30.197Z,2.58
2019-02-02T07:18:30.456Z,2.58
2019-02-02T07:19:31.736Z,2.58
2019-02-02T07:20:30.176Z,2.61
2019-02-02T07:21:30.100Z,2.63
2019-02-02T07:22:29.824Z,2.59
2019-02-02T07:23:29.813Z,2.56
2019-02-02T07:24:30.330Z,2.67
2019-02-02T07:25:30.040Z,2.66
2019-02-02T07:26:29.984Z,2.63
2019-02-02T07:27:30.257Z,2.58
2019-02-02T07:28:30.204Z,2.64
2019-02-02T07:29:29.683Z,2.7
2019-02-02T07:30:50.189Z,2.66
2019-02-02T07:31:30.243Z,2.69
2019-02-02T07:32:29.865Z,2.59
2019-02-02T07:33:29.834Z,2.7
2019-02-02T07:34:29.556Z,2.64
2019-02-02T07:35:30.068Z,2.66
2019-02-02T07:36:29.836Z,2.63
2019-02-02T07:37:30.077Z,2.63
2019-02-02T07:38:29.472Z,2.64
2019-02-02T07:39:29.708Z,2.71
2019-02-02T07:40:29.678Z,2.73
2019-02-02T07:41:29.667Z,2.81
2019-02-02T07:42:29.991Z,2.74
2019-02-02T07:43:29.879Z,2.73
2019-02-02T07:44:29.850Z,2.74
2019-02-02T07:45:29.699Z,2.69
2019-02-02T07:46:29.813Z,2.76
2019-02-02T07:47:29.523Z,2.64
2019-02-02T07:48:29.522Z,2.74
2019-02-02T07:49:29.779Z,2.66
2019-02-02T07:50:29.717Z,2.69
2019-02-02T07:51:29.780Z,2.79
2019-02-02T07:52:29.411Z,2.7
2019-02-02T07:53:29.391Z,2.73
2019-02-02T07:54:29.625Z,2.73
2019-02-02T07:55:29.364Z,2.81
2019-02-02T07:56:29.326Z,2.77
2019-02-02T07:57:29.554Z,2.82
2019-02-02T07:58:29.534Z,2.76
2019-02-02T07:59:29.009Z,2.71
2019-02-02T08:00:40.009Z,2.74
2019-02-02T08:01:29.294Z,2.79
2019-02-02T08:02:29.192Z,2.74
2019-02-02T08:03:29.436Z,2.77
2019-02-02T08:04:29.416Z,2.73
2019-02-02T08:05:29.402Z,2.76
2019-02-02T08:06:29.360Z,2.74
2019-02-02T08:07:29.084Z,2.79
2019-02-02T08:08:29.325Z,2.7
2019-02-02T08:09:29.294Z,2.74
2019-02-02T08:10:29.020Z,2.7
2019-02-02T08:11:29.296Z,2.76
2019-02-02T08:12:29.229Z,2.77
2019-02-02T08:13:28.953Z,2.79
2019-02-02T08:14:29.191Z,2.76
2019-02-02T08:15:29.183Z,2.82
2019-02-02T08:16:28.900Z,2.79
2019-02-02T08:17:32.112Z,2.79
2019-02-02T08:18:29.094Z,2.76
2019-02-02T08:19:30.400Z,2.79
2019-02-02T08:20:29.070Z,2.82
2019-02-02T08:21:29.038Z,2.79
2019-02-02T08:22:28.758Z,2.84
2019-02-02T08:23:28.733Z,2.85
2019-02-02T08:24:28.716Z,2.87
2019-02-02T08:25:28.697Z,2.87
2019-02-02T08:26:28.925Z,2.95
2019-02-02T08:27:28.694Z,2.91
2019-02-02T08:28:28.877Z,2.92
2019-02-02T08:29:28.598Z,2.89
2019-02-02T08:30:28.482Z,3.03
2019-02-02T08:31:28.819Z,2.98
2019-02-02T08:32:29.050Z,3.07
2019-02-02T08:33:28.836Z,2.95
2019-02-02T08:34:28.279Z,2.95
2019-02-02T08:35:28.733Z,2.95
2019-02-02T08:36:28.701Z,3.06
2019-02-02T08:37:28.678Z,3.15
2019-02-02T08:38:28.700Z,3.03
2019-02-02T08:39:34.267Z,3.07
2019-02-02T08:40:28.662Z,3.09
2019-02-02T08:41:28.595Z,3.12
2019-02-02T08:42:28.568Z,3.2
2019-02-02T08:43:28.293Z,3.18
2019-02-02T08:44:29.527Z,3.24
2019-02-02T08:45:28.246Z,3.18
2019-02-02T08:46:28.490Z,3.2
2019-02-02T08:47:28.468Z,3.13
2019-02-02T08:48:28.451Z,3.21
2019-02-02T08:49:27.904Z,3.07
2019-02-02T08:50:28.169Z,3.15
2019-02-02T08:51:28.122Z,3.13
2019-02-02T08:52:28.355Z,3.2
2019-02-02T08:53:28.578Z,3.13
2019-02-02T08:54:28.091Z,3.2
2019-02-02T08:55:28.353Z,3.18
2019-02-02T08:56:28.408Z,3.2
2019-02-02T08:57:28.337Z,3.16
2019-02-02T08:58:28.161Z,3.16
2019-02-02T08:59:27.944Z,3.2
2019-02-02T09:00:27.929Z,3.15
2019-02-02T09:01:27.903Z,3.18
2019-02-02T09:02:27.893Z,3.23
2019-02-02T09:03:28.155Z,3.18
2019-02-02T09:04:27.927Z,3.13
2019-02-02T09:05:28.129Z,3.15
2019-02-02T09:06:38.485Z,3.18
2019-02-02T09:07:27.778Z,3.3
2019-02-02T09:08:28.166Z,3.18
2019-02-02T09:09:27.982Z,3.2
2019-02-02T09:10:27.975Z,3.16
2019-02-02T09:11:27.439Z,3.15
2019-02-02T09:12:27.935Z,3.21
2019-02-02T09:13:28.203Z,3.24
2019-02-02T09:14:27.874Z,3.27
2019-02-02T09:15:27.872Z,3.2
2019-02-02T09:16:27.838Z,3.25
2019-02-02T09:17:27.552Z,3.21
2019-02-02T09:18:27.540Z,3.28
2019-02-02T09:19:27.512Z,3.21
2019-02-02T09:20:27.741Z,3.25
2019-02-02T09:21:27.480Z,3.3
2019-02-02T09:22:27.491Z,3.24
2019-02-02T09:23:27.425Z,3.28
2019-02-02T09:24:27.658Z,3.24
2019-02-02T09:25:27.387Z,3.28
2019-02-02T09:26:27.361Z,3.3
2019-02-02T09:27:27.599Z,3.24
2019-02-02T09:28:27.575Z,3.3
2019-02-02T09:29:27.580Z,3.25
2019-02-02T09:30:27.533Z,3.27
2019-02-02T09:31:27.255Z,3.28
2019-02-02T09:32:27.328Z,3.31
2019-02-02T09:33:27.218Z,3.44
2019-02-02T09:34:28.894Z,3.42
2019-02-02T09:35:27.181Z,3.42
2019-02-02T09:36:27.415Z,3.39
2019-02-02T09:37:27.127Z,3.36
2019-02-02T09:38:27.106Z,3.39
2019-02-02T09:39:27.342Z,3.34
2019-02-02T09:40:30.184Z,3.46
2019-02-02T09:41:27.304Z,3.46
2019-02-02T09:42:27.277Z,3.44
2019-02-02T09:43:27.261Z,3.47
2019-02-02T09:44:26.976Z,3.43
2019-02-02T09:45:27.004Z,3.49
2019-02-02T09:46:27.200Z,3.49
2019-02-02T09:47:26.927Z,3.47
2019-02-02T09:48:26.889Z,3.53
2019-02-02T09:49:27.124Z,3.46
2019-02-02T09:50:26.847Z,3.47
2019-02-02T09:51:27.077Z,3.47
2019-02-02T09:52:26.551Z,3.46
2019-02-02T09:53:27.037Z,3.5
2019-02-02T09:54:31.461Z,3.52
2019-02-02T09:55:26.752Z,3.5
2019-02-02T09:56:26.988Z,3.53
2019-02-02T09:57:30.183Z,3.52
2019-02-02T09:58:26.679Z,3.57
2019-02-02T09:59:26.933Z,3.65
2019-02-02T10:00:26.394Z,3.53
2019-02-02T10:01:32.636Z,3.46
2019-02-02T10:02:29.309Z,3.54
2019-02-02T10:03:26.826Z,3.52
2019-02-02T10:04:26.546Z,3.49
2019-02-02T10:05:26.782Z,3.5
2019-02-02T10:06:26.535Z,3.46
2019-02-02T10:07:26.807Z,3.52
2019-02-02T10:08:28.219Z,3.46
2019-02-02T10:09:26.762Z,3.53
2019-02-02T10:10:26.678Z,3.58
2019-02-02T10:11:26.403Z,3.57
2019-02-02T10:12:26.637Z,3.54
2019-02-02T10:13:26.611Z,3.6
2019-02-02T10:14:26.593Z,3.62
2019-02-02T10:15:26.576Z,3.58
2019-02-02T10:16:26.292Z,3.53
2019-02-02T10:17:26.289Z,3.57
2019-02-02T10:18:26.514Z,3.64
2019-02-02T10:19:26.257Z,3.61
2019-02-02T10:20:25.957Z,3.61
2019-02-02T10:21:26.183Z,3.65
2019-02-02T10:22:26.211Z,3.7
2019-02-02T10:23:26.400Z,3.64
2019-02-02T10:24:28.471Z,3.76
2019-02-02T10:25:26.105Z,3.75
2019-02-02T10:26:26.091Z,3.7
2019-02-02T10:27:26.064Z,3.72
2019-02-02T10:28:26.306Z,3.76
2019-02-02T10:29:26.010Z,3.79
2019-02-02T10:30:27.782Z,3.88
2019-02-02T10:31:26.024Z,3.8
2019-02-02T10:32:26.208Z,3.88
2019-02-02T10:33:25.937Z,3.85
2019-02-02T10:34:25.921Z,3.9
2019-02-02T10:35:26.236Z,3.88
2019-02-02T10:36:25.888Z,3.98
2019-02-02T10:37:26.108Z,3.97
2019-02-02T10:38:25.820Z,3.97
2019-02-02T10:39:25.819Z,3.92
2019-02-02T10:40:25.806Z,3.94
2019-02-02T10:41:26.019Z,3.97
2019-02-02T10:42:25.740Z,3.96
2019-02-02T10:43:25.730Z,3.96
2019-02-02T10:44:25.706Z,3.98
2019-02-02T10:45:25.966Z,3.98
2019-02-02T10:46:25.406Z,3.94
2019-02-02T10:47:25.648Z,3.97
2019-02-02T10:48:25.874Z,3.97
2019-02-02T10:49:25.370Z,3.94
2019-02-02T10:50:25.913Z,4.01
2019-02-02T10:51:27.993Z,3.97
2019-02-02T10:52:25.532Z,3.97
2019-02-02T10:53:25.785Z,4
2019-02-02T10:54:25.487Z,4.08
2019-02-02T10:55:25.807Z,4.1
2019-02-02T10:56:25.712Z,4.01
2019-02-02T10:57:25.426Z,4.04
2019-02-02T10:58:25.672Z,4.06
2019-02-02T10:59:25.391Z,4.1
2019-02-02T11:00:25.673Z,4.03
2019-02-02T11:01:25.366Z,4.07
2019-02-02T11:02:25.322Z,4.01
2019-02-02T11:03:25.575Z,3.98
2019-02-02T11:04:25.195Z,4.06
2019-02-02T11:05:25.476Z,4.08
2019-02-02T11:06:25.723Z,4.07
2019-02-02T11:07:25.808Z,4.03
2019-02-02T11:08:25.394Z,3.98
2019-02-02T11:09:25.699Z,4.03
2019-02-02T11:10:25.609Z,4.04
2019-02-02T11:11:25.384Z,4.08
2019-02-02T11:12:25.642Z,4.03
2019-02-02T11:13:25.567Z,4.03
2019-02-02T11:14:25.652Z,4.04
2019-02-02T11:15:25.088Z,4.1
2019-02-02T11:16:25.209Z,4.01
2019-02-02T11:17:25.023Z,4.01
2019-02-02T11:18:25.737Z,4.1
2019-02-02T11:19:25.249Z,3.97
2019-02-02T11:20:25.179Z,4.03
2019-02-02T11:21:25.234Z,4
2019-02-02T11:22:25.505Z,3.97
2019-02-02T11:23:25.017Z,4.08
2019-02-02T11:24:24.989Z,4.03
2019-02-02T11:25:24.863Z,4.1
2019-02-02T11:26:25.305Z,4.15
2019-02-02T11:27:25.341Z,4.1
2019-02-02T11:28:24.699Z,4.06
2019-02-02T11:29:25.461Z,4.06
2019-02-02T11:30:25.143Z,4.12
2019-02-02T11:31:24.460Z,4.06
2019-02-02T11:32:24.706Z,4.04
2019-02-02T11:33:24.965Z,4.08
2019-02-02T11:34:24.665Z,4.1
2019-02-02T11:35:24.645Z,4.06
2019-02-02T11:36:24.660Z,4.03
2019-02-02T11:37:24.348Z,4.08
2019-02-02T11:38:24.569Z,4.04
2019-02-02T11:39:24.555Z,4.12
2019-02-02T11:40:24.539Z,4.04
2019-02-02T11:41:24.261Z,3.97
2019-02-02T11:42:24.747Z,3.96
2019-02-02T11:43:24.475Z,4.01
2019-02-02T11:44:25.042Z,4
2019-02-02T11:45:24.689Z,3.94
2019-02-02T11:46:24.427Z,4.04
2019-02-02T11:47:24.666Z,4.08
2019-02-02T11:48:24.624Z,4.1
2019-02-02T11:49:26.528Z,4.01
2019-02-02T11:50:24.326Z,4.03
2019-02-02T11:51:24.113Z,4.1
2019-02-02T11:52:27.009Z,4.08
2019-02-02T11:53:24.521Z,4.06
2019-02-02T11:54:23.988Z,3.98
2019-02-02T11:55:24.222Z,3.98
2019-02-02T11:56:24.456Z,3.97
2019-02-02T11:57:24.185Z,3.9
2019-02-02T11:58:24.422Z,3.88
2019-02-02T11:59:24.414Z,3.88
2019-02-02T12:00:24.123Z,3.89
2019-02-02T12:01:24.352Z,3.92
2019-02-02T12:02:24.340Z,3.89
2019-02-02T12:03:24.320Z,3.88
2019-02-02T12:04:24.059Z,3.88
2019-02-02T12:05:24.349Z,3.89
2019-02-02T12:06:24.004Z,3.85
2019-02-02T12:07:23.722Z,3.86
2019-02-02T12:08:24.212Z,3.83
2019-02-02T12:09:24.143Z,3.83
2019-02-02T12:10:24.172Z,3.79
2019-02-02T12:11:23.894Z,3.8
2019-02-02T12:12:23.878Z,3.71
2019-02-02T12:13:23.856Z,3.78
2019-02-02T12:14:23.856Z,3.76
2019-02-02T12:15:24.075Z,3.78
2019-02-02T12:16:24.044Z,3.75
2019-02-02T12:17:24.055Z,3.76
2019-02-02T12:18:23.784Z,3.68
2019-02-02T12:19:23.755Z,3.61
2019-02-02T12:20:23.983Z,3.68
2019-02-02T12:21:23.940Z,3.67
2019-02-02T12:22:23.415Z,3.68
2019-02-02T12:23:23.652Z,3.64
2019-02-02T12:24:23.370Z,3.58
2019-02-02T12:25:23.604Z,3.65
2019-02-02T12:26:23.584Z,3.53
2019-02-02T12:27:23.575Z,3.6
2019-02-02T12:28:23.853Z,3.65
2019-02-02T12:29:23.522Z,3.62
2019-02-02T12:30:23.755Z,3.54
2019-02-02T12:31:23.749Z,3.6
2019-02-02T12:32:31.198Z,3.6
2019-02-02T12:33:25.813Z,3.6
2019-02-02T12:34:23.676Z,3.6
2019-02-02T12:35:23.412Z,3.58
2019-02-02T12:36:23.644Z,3.57
2019-02-02T12:37:23.359Z,3.47
2019-02-02T12:38:23.369Z,3.57
2019-02-02T12:39:23.433Z,3.58
2019-02-02T12:40:23.544Z,3.58
2019-02-02T12:41:23.037Z,3.6
2019-02-02T12:42:23.509Z,3.53
2019-02-02T12:43:22.976Z,3.61
2019-02-02T12:44:23.208Z,3.57
2019-02-02T12:45:23.438Z,3.54
2019-02-02T12:46:23.421Z,3.61
2019-02-02T12:47:25.492Z,3.54
2019-02-02T12:48:22.893Z,3.57
2019-02-02T12:49:23.357Z,3.6
2019-02-02T12:50:23.339Z,3.62
2019-02-02T12:51:23.063Z,3.61
2019-02-02T12:52:25.360Z,3.57
2019-02-02T12:53:23.277Z,3.57
2019-02-02T12:54:23.249Z,3.61
2019-02-02T12:55:25.905Z,3.53
2019-02-02T12:56:23.218Z,3.6
2019-02-02T12:57:22.929Z,3.5
2019-02-02T12:58:23.174Z,3.5
2019-02-02T12:59:23.180Z,3.58
2019-02-02T13:00:23.198Z,3.58
2019-02-02T13:01:23.110Z,3.53
2019-02-02T13:02:25.417Z,3.61
2019-02-02T13:03:22.813Z,3.58
2019-02-02T13:04:22.785Z,3.5
2019-02-02T13:05:23.027Z,3.4
2019-02-02T13:06:22.747Z,3.39
2019-02-02T13:07:22.741Z,3.44
2019-02-02T13:08:22.727Z,3.4
2019-02-02T13:09:22.961Z,3.3
2019-02-02T13:10:24.501Z,3.39
2019-02-02T13:11:23.948Z,3.31
2019-02-02T13:12:22.715Z,3.4
2019-02-02T13:13:22.856Z,3.4
2019-02-02T13:14:22.576Z,3.46
2019-02-02T13:15:22.620Z,3.4
2019-02-02T13:16:22.812Z,3.44
2019-02-02T13:17:22.791Z,3.42
2019-02-02T13:18:22.646Z,3.36
2019-02-02T13:19:22.736Z,3.27
2019-02-02T13:20:22.843Z,3.24
2019-02-02T13:21:22.691Z,3.21